This is the latest recevied weather packets stored in our database for station/object KE5VT. If no packets are shown the sender has not sent any weather packets the latest 10 day(s).
| Time | Temp. | Humidity | Pressure | Rain* | Wind** | Luminosity | Snow |
|---|---|---|---|---|---|---|---|
| 1777921881 | 25.56° C | 28% | 1011.4 hPa | 0 mm | - | 71 W/m² | - |
| 1777921577 | 25.56° C | 32% | 1011.3 hPa | 0 mm | - | 62 W/m² | - |
| 1777921274 | 25.56° C | 30% | 1011.4 hPa | 0 mm | - | 62 W/m² | - |
| 1777920970 | 25° C | 31% | 1011.5 hPa | 0 mm | - | 255 W/m² | - |
| 1777920667 | 25° C | 31% | 1011.6 hPa | 0 mm | - | 695 W/m² | - |
| 1777920363 | 24.44° C | 30% | 1011.6 hPa | 0 mm | - | 122 W/m² | - |
| 1777920058 | 25° C | 29% | 1011.7 hPa | 0 mm | - | 673 W/m² | - |
| 1777919755 | 25° C | 30% | 1011.8 hPa | 0 mm | - | 588 W/m² | - |
| 1777919453 | 24.44° C | 31% | 1012 hPa | 0 mm | - | 586 W/m² | - |
| 1777919150 | 25° C | 30% | 1012 hPa | 0 mm | - | 74 W/m² | - |
| 1777918847 | 23.89° C | 31% | 1012.2 hPa | 0 mm | - | 664 W/m² | - |
| 1777918544 | 23.89° C | 30% | 1012.2 hPa | 0 mm | - | 652 W/m² | - |
| 1777918243 | 23.33° C | 32% | 1012.3 hPa | 0 mm | - | 679 W/m² | - |
| 1777917941 | 24.44° C | 29% | 1012.4 hPa | 0 mm | - | 735 W/m² | - |
| 1777917640 | 23.89° C | 29% | 1012 hPa | 0 mm | - | 727 W/m² | - |
| 1777917337 | 23.89° C | 29% | 1012.1 hPa | 0 mm | - | 743 W/m² | - |
| 1777917033 | 25° C | 27% | 1012.3 hPa | 0 mm | - | 748 W/m² | - |
| 1777916731 | 22.78° C | 32% | 1012.2 hPa | 0 mm | - | 748 W/m² | - |
| 1777916428 | 23.89° C | 32% | 1012.4 hPa | 0 mm | - | 758 W/m² | - |
| 1777916125 | 23.33° C | 32% | 1012.4 hPa | 0 mm | - | 760 W/m² | - |
| 1777915822 | 23.89° C | 32% | 1012.3 hPa | 0 mm | - | 754 W/m² | - |
| 1777915518 | 23.33° C | 33% | 1012.4 hPa | 0 mm | - | 757 W/m² | - |
| 1777915215 | 22.78° C | 32% | 1012.4 hPa | 0 mm | - | 733 W/m² | - |
| 1777914912 | 23.89° C | 31% | 1012.5 hPa | 0 mm | - | 695 W/m² | - |
| 1777914609 | 22.78° C | 31% | 1012.5 hPa | 0 mm | - | 772 W/m² | - |
* Rain latest hour (hover to see other rain measurements)
** Current wind speed in m/s (hover to see current wind gust speed)